Time;durP1;ratioP1;P1;durP2;ratioP2;P2;SDS_P1;SDS_P2;PMS_P1;PMS_P2;Temp;Humidity;BMP_temperature;BMP_pressure;BME280_temperature;BME280_humidity;BME280_pressure;Samples;Min_cycle;Max_cycle;Signal;HPM_P1;HPM_P2
2023/01/23 00:01:09;;;;;;;31.40;17.88;;;;;;;;;;5134014;28;20531;-65
2023/01/23 00:03:36;;;;;;;29.48;17.85;;;;;;;;;;5133837;28;20289;-65
2023/01/23 00:06:06;;;;;;;31.75;20.38;;;;;;;;;;5133591;28;20292;-65
2023/01/23 00:08:35;;;;;;;39.10;19.27;;;;;;;;;;5133416;28;20217;-65
2023/01/23 00:11:05;;;;;;;32.92;18.80;;;;;;;;;;5133833;28;20197;-65
2023/01/23 00:13:32;;;;;;;32.03;18.92;;;;;;;;;;5133612;28;20709;-65
2023/01/23 00:16:00;;;;;;;33.58;20.00;;;;;;;;;;5133816;28;20191;-65
2023/01/23 00:18:27;;;;;;;28.63;17.80;;;;;;;;;;5133749;28;20195;-65
2023/01/23 00:20:54;;;;;;;25.73;17.15;;;;;;;;;;5134491;27;20197;-65
2023/01/23 00:23:22;;;;;;;30.73;18.92;;;;;;;;;;5136997;27;20283;-65
2023/01/23 00:25:50;;;;;;;29.42;18.60;;;;;;;;;;5137309;27;20212;-65
2023/01/23 00:28:17;;;;;;;29.35;18.23;;;;;;;;;;5136807;27;20219;-65
2023/01/23 00:30:44;;;;;;;33.25;19.15;;;;;;;;;;5137429;27;20200;-65
2023/01/23 00:33:11;;;;;;;32.75;17.60;;;;;;;;;;5137138;27;20197;-65
2023/01/23 00:35:38;;;;;;;27.05;17.35;;;;;;;;;;5137320;27;20197;-65
2023/01/23 00:38:05;;;;;;;27.33;17.83;;;;;;;;;;5137010;27;20205;-65
2023/01/23 00:40:34;;;;;;;29.60;18.98;;;;;;;;;;5137045;27;20288;-65
2023/01/23 00:43:01;;;;;;;29.30;17.90;;;;;;;;;;5136674;27;20193;-65
2023/01/23 00:45:29;;;;;;;28.20;18.15;;;;;;;;;;5136645;27;20674;-65
2023/01/23 00:47:56;;;;;;;30.60;17.48;;;;;;;;;;5136851;27;20214;-65
2023/01/23 00:50:23;;;;;;;30.25;17.77;;;;;;;;;;5136469;27;20571;-65
2023/01/23 00:52:50;;;;;;;27.30;18.08;;;;;;;;;;5136968;27;20555;-65
2023/01/23 00:55:17;;;;;;;30.20;18.05;;;;;;;;;;5136371;27;20678;-65
2023/01/23 00:57:46;;;;;;;33.08;19.88;;;;;;;;;;5136822;27;20226;-65
2023/01/23 01:00:14;;;;;;;36.22;19.35;;;;;;;;;;5136596;27;20193;-65
2023/01/23 01:02:41;;;;;;;28.92;19.25;;;;;;;;;;5137039;27;20197;-65
2023/01/23 01:05:09;;;;;;;33.53;18.05;;;;;;;;;;5136580;27;20199;-65
2023/01/23 01:07:36;;;;;;;31.77;18.67;;;;;;;;;;5136676;27;20264;-65
2023/01/23 01:10:03;;;;;;;33.00;19.80;;;;;;;;;;5136142;27;20652;-65
2023/01/23 01:12:30;;;;;;;32.58;19.98;;;;;;;;;;5136135;27;20655;-65
2023/01/23 01:14:59;;;;;;;30.38;18.00;;;;;;;;;;5136419;27;20199;-65
2023/01/23 01:17:26;;;;;;;32.03;17.63;;;;;;;;;;5136338;27;20278;-65
2023/01/23 01:19:53;;;;;;;32.28;18.42;;;;;;;;;;5136246;27;20193;-65
2023/01/23 01:22:20;;;;;;;30.27;18.13;;;;;;;;;;5136192;27;20194;-65
2023/01/23 01:24:48;;;;;;;34.53;17.52;;;;;;;;;;5135829;27;20647;-65
2023/01/23 01:27:15;;;;;;;25.13;17.10;;;;;;;;;;5136662;27;20234;-65
2023/01/23 01:29:42;;;;;;;30.08;18.40;;;;;;;;;;5135756;27;20221;-65
2023/01/23 01:32:10;;;;;;;31.55;17.25;;;;;;;;;;5135860;27;20208;-64
2023/01/23 01:34:38;;;;;;;31.85;18.80;;;;;;;;;;5136345;27;20625;-65
2023/01/23 01:37:05;;;;;;;34.90;20.92;;;;;;;;;;5136217;27;20195;-65
2023/01/23 01:39:33;;;;;;;29.05;17.90;;;;;;;;;;5136301;27;20223;-65
2023/01/23 01:42:00;;;;;;;33.92;19.30;;;;;;;;;;5136401;27;20654;-65
2023/01/23 01:44:27;;;;;;;32.78;20.40;;;;;;;;;;5135730;27;20190;-65
2023/01/23 01:46:54;;;;;;;27.25;19.25;;;;;;;;;;5135911;27;20198;-65
2023/01/23 01:49:24;;;;;;;31.48;19.02;;;;;;;;;;5135942;27;20198;-65
2023/01/23 01:51:53;;;;;;;28.65;17.15;;;;;;;;;;5136312;27;20192;-65
2023/01/23 01:54:22;;;;;;;28.65;18.35;;;;;;;;;;5135267;27;20300;-65
2023/01/23 01:56:52;;;;;;;29.15;18.40;;;;;;;;;;5135485;27;20221;-65
2023/01/23 01:59:20;;;;;;;26.85;17.42;;;;;;;;;;5136000;27;20185;-65
2023/01/23 02:01:49;;;;;;;29.67;18.63;;;;;;;;;;5135816;27;20196;-65
2023/01/23 02:04:16;;;;;;;34.72;17.60;;;;;;;;;;5135332;27;20191;-65
2023/01/23 02:06:45;;;;;;;26.42;17.73;;;;;;;;;;5135127;27;20207;-65
2023/01/23 02:09:15;;;;;;;34.10;17.75;;;;;;;;;;5134711;27;20680;-65
2023/01/23 02:11:43;;;;;;;30.10;18.88;;;;;;;;;;5136078;27;20186;-65
2023/01/23 02:14:10;;;;;;;31.70;18.85;;;;;;;;;;5135208;27;20246;-65
2023/01/23 02:16:42;;;;;;;29.35;17.85;;;;;;;;;;5135632;27;20274;-66
2023/01/23 02:19:12;;;;;;;26.95;17.00;;;;;;;;;;5135424;27;20575;-65
2023/01/23 02:21:40;;;;;;;30.85;18.05;;;;;;;;;;5135155;27;20656;-65
2023/01/23 02:24:15;;;;;;;31.33;17.65;;;;;;;;;;5135441;27;20200;-65
2023/01/23 02:26:44;;;;;;;29.35;18.42;;;;;;;;;;5134908;27;20189;-66
2023/01/23 02:29:12;;;;;;;33.17;17.88;;;;;;;;;;5134943;27;20216;-64
2023/01/23 02:31:41;;;;;;;26.73;17.77;;;;;;;;;;5134818;27;20191;-65
2023/01/23 02:34:11;;;;;;;29.58;17.50;;;;;;;;;;5134550;27;20194;-65
2023/01/23 02:36:38;;;;;;;28.52;17.38;;;;;;;;;;5134715;27;20198;-65
2023/01/23 02:39:07;;;;;;;29.27;17.02;;;;;;;;;;5134534;27;20207;-64
2023/01/23 02:41:36;;;;;;;23.30;15.27;;;;;;;;;;5134413;27;20199;-64
2023/01/23 02:44:06;;;;;;;34.22;18.50;;;;;;;;;;5134314;27;20201;-65
2023/01/23 02:46:33;;;;;;;29.38;17.25;;;;;;;;;;5134624;27;20559;-65
2023/01/23 02:49:00;;;;;;;29.65;17.23;;;;;;;;;;5135305;27;20215;-64
2023/01/23 02:51:27;;;;;;;23.83;15.70;;;;;;;;;;5134736;27;20194;-64
2023/01/23 02:53:54;;;;;;;24.42;16.10;;;;;;;;;;5134587;27;20227;-64
2023/01/23 02:56:21;;;;;;;27.35;16.75;;;;;;;;;;5134308;27;20222;-64
2023/01/23 03:01:35;;;;;;;27.17;16.10;;;;;;;;;;5134331;27;20179;-64
2023/01/23 03:04:03;;;;;;;25.45;16.23;;;;;;;;;;5134460;27;20200;-65
2023/01/23 03:06:35;;;;;;;26.65;16.75;;;;;;;;;;5134386;27;20195;-64
2023/01/23 03:09:02;;;;;;;29.50;16.15;;;;;;;;;;5134068;28;20672;-64
2023/01/23 03:11:30;;;;;;;23.92;14.13;;;;;;;;;;5134376;28;20259;-64
2023/01/23 03:13:57;;;;;;;27.23;15.73;;;;;;;;;;5134032;28;20203;-64
2023/01/23 03:16:24;;;;;;;26.85;15.98;;;;;;;;;;5134273;28;20190;-64
2023/01/23 03:18:52;;;;;;;22.42;13.95;;;;;;;;;;5134089;28;20290;-64
2023/01/23 03:21:20;;;;;;;24.58;15.25;;;;;;;;;;5134335;28;20547;-64
2023/01/23 03:23:47;;;;;;;21.83;15.00;;;;;;;;;;5134227;28;20524;-64
2023/01/23 03:26:14;;;;;;;28.73;15.13;;;;;;;;;;5134295;28;20534;-64
2023/01/23 03:31:26;;;;;;;25.92;16.73;;;;;;;;;;5133984;28;20636;-64
2023/01/23 03:33:55;;;;;;;28.85;14.45;;;;;;;;;;5133848;28;20194;-64
2023/01/23 03:36:22;;;;;;;24.08;14.05;;;;;;;;;;5134374;28;20199;-64
2023/01/23 03:41:34;;;;;;;29.95;16.95;;;;;;;;;;5133988;28;20588;-64
2023/01/23 03:44:01;;;;;;;27.15;14.95;;;;;;;;;;5134142;28;20197;-64
2023/01/23 03:46:28;;;;;;;19.90;12.93;;;;;;;;;;5133948;28;20199;-64
2023/01/23 03:48:56;;;;;;;26.65;15.25;;;;;;;;;;5133627;28;20232;-64
2023/01/23 03:51:24;;;;;;;24.77;14.00;;;;;;;;;;5133945;28;20191;-64
2023/01/23 03:53:51;;;;;;;22.58;13.70;;;;;;;;;;5113939;28;20277;-64
2023/01/23 03:56:18;;;;;;;23.85;15.07;;;;;;;;;;5114999;28;20232;-65
2023/01/23 03:58:45;;;;;;;22.00;12.93;;;;;;;;;;5128715;27;20202;-64
2023/01/23 04:01:12;;;;;;;22.25;13.32;;;;;;;;;;5137802;27;20194;-64
2023/01/23 04:03:40;;;;;;;20.40;12.38;;;;;;;;;;5137887;27;20197;-63
2023/01/23 04:06:08;;;;;;;21.13;12.63;;;;;;;;;;5137389;27;20224;-65
2023/01/23 04:08:35;;;;;;;21.52;13.85;;;;;;;;;;5137569;27;20225;-63
2023/01/23 04:11:03;;;;;;;21.15;13.05;;;;;;;;;;5137698;27;20196;-64
2023/01/23 04:13:30;;;;;;;21.60;14.23;;;;;;;;;;5137912;27;20653;-64
2023/01/23 04:15:58;;;;;;;19.98;12.68;;;;;;;;;;5137586;27;20198;-64
2023/01/23 04:18:25;;;;;;;17.23;11.30;;;;;;;;;;5137833;27;20203;-64
2023/01/23 04:20:52;;;;;;;19.25;12.70;;;;;;;;;;5137338;27;20195;-64
2023/01/23 04:23:21;;;;;;;18.13;13.30;;;;;;;;;;5137448;27;20191;-64
2023/01/23 04:25:48;;;;;;;20.50;13.13;;;;;;;;;;5136972;27;20647;-64
2023/01/23 04:28:16;;;;;;;20.55;12.40;;;;;;;;;;5138032;27;20219;-63
2023/01/23 04:30:43;;;;;;;21.85;13.25;;;;;;;;;;5137411;27;20206;-64
2023/01/23 04:33:10;;;;;;;18.88;12.25;;;;;;;;;;5137221;27;20195;-64
2023/01/23 04:35:37;;;;;;;16.50;12.00;;;;;;;;;;5137691;27;20189;-64
2023/01/23 04:38:04;;;;;;;16.65;11.32;;;;;;;;;;5137119;27;20195;-64
2023/01/23 04:40:33;;;;;;;17.88;13.02;;;;;;;;;;5137123;27;20196;-65
2023/01/23 04:43:00;;;;;;;15.23;10.45;;;;;;;;;;5137027;27;20210;-63
2023/01/23 04:45:27;;;;;;;18.08;10.32;;;;;;;;;;5137074;27;20191;-63
2023/01/23 04:47:54;;;;;;;15.18;11.23;;;;;;;;;;5136933;27;20202;-63
2023/01/23 04:50:21;;;;;;;20.50;12.48;;;;;;;;;;5136992;27;20195;-63
2023/01/23 04:52:49;;;;;;;17.50;12.07;;;;;;;;;;5136946;27;20579;-63
2023/01/23 04:55:16;;;;;;;18.63;12.85;;;;;;;;;;5136428;27;20202;-63
2023/01/23 04:57:44;;;;;;;19.20;12.57;;;;;;;;;;5119264;27;20560;-63
2023/01/23 05:00:13;;;;;;;19.08;12.43;;;;;;;;;;5115068;28;20208;-64
2023/01/23 05:02:40;;;;;;;14.82;11.27;;;;;;;;;;5114992;28;20189;-63
2023/01/23 05:05:08;;;;;;;19.98;13.27;;;;;;;;;;5115217;28;20205;-63
2023/01/23 05:07:35;;;;;;;18.98;11.55;;;;;;;;;;5114952;28;20197;-64
2023/01/23 05:10:02;;;;;;;21.52;12.70;;;;;;;;;;5114953;28;20750;-65
2023/01/23 05:12:29;;;;;;;16.65;11.38;;;;;;;;;;5115191;28;20193;-64
2023/01/23 05:14:58;;;;;;;18.95;12.48;;;;;;;;;;5115276;28;20193;-64
2023/01/23 05:17:25;;;;;;;18.38;12.55;;;;;;;;;;5115044;28;20687;-63
2023/01/23 05:19:52;;;;;;;18.35;11.70;;;;;;;;;;5115244;28;20200;-63
2023/01/23 05:22:20;;;;;;;19.98;11.48;;;;;;;;;;5114751;28;20296;-64
2023/01/23 05:24:47;;;;;;;18.27;12.07;;;;;;;;;;5115301;28;20201;-64
2023/01/23 05:27:14;;;;;;;18.77;12.90;;;;;;;;;;5115632;28;20236;-64
2023/01/23 05:29:41;;;;;;;21.65;13.27;;;;;;;;;;5094949;28;20269;-65
2023/01/23 05:32:10;;;;;;;19.58;13.68;;;;;;;;;;5094496;28;20683;-64
2023/01/23 05:34:37;;;;;;;20.77;14.25;;;;;;;;;;5095091;28;20198;-64
2023/01/23 05:37:04;;;;;;;23.08;12.65;;;;;;;;;;5094601;28;20200;-65
2023/01/23 05:39:32;;;;;;;20.55;12.18;;;;;;;;;;5094552;28;20200;-65
2023/01/23 05:42:00;;;;;;;22.50;12.70;;;;;;;;;;5094314;28;20193;-64
2023/01/23 05:44:27;;;;;;;19.17;12.55;;;;;;;;;;5094564;28;20200;-64
2023/01/23 05:46:54;;;;;;;18.10;11.88;;;;;;;;;;5094620;28;20203;-64
2023/01/23 05:49:23;;;;;;;22.25;14.00;;;;;;;;;;5094451;28;20270;-64
2023/01/23 05:51:50;;;;;;;23.27;13.75;;;;;;;;;;5094234;28;20190;-64
2023/01/23 05:54:17;;;;;;;23.67;13.48;;;;;;;;;;5094151;28;20226;-64
2023/01/23 05:56:44;;;;;;;21.05;13.40;;;;;;;;;;5102654;28;20238;-64
2023/01/23 05:59:12;;;;;;;19.40;13.40;;;;;;;;;;5131255;27;20198;-64
2023/01/23 06:01:39;;;;;;;23.00;13.20;;;;;;;;;;5134869;27;20191;-63
2023/01/23 06:04:06;;;;;;;18.48;12.77;;;;;;;;;;5135434;27;20189;-64
2023/01/23 06:06:35;;;;;;;16.63;11.73;;;;;;;;;;5135401;27;20223;-64
2023/01/23 06:09:02;;;;;;;24.88;14.70;;;;;;;;;;5135224;27;20668;-63
2023/01/23 06:11:29;;;;;;;22.02;12.82;;;;;;;;;;5135323;27;20207;-63
2023/01/23 06:13:56;;;;;;;19.77;11.93;;;;;;;;;;5135215;27;20195;-63
2023/01/23 06:16:23;;;;;;;22.52;14.50;;;;;;;;;;5135778;27;20201;-63
2023/01/23 06:18:51;;;;;;;20.17;13.10;;;;;;;;;;5134419;27;20206;-63
2023/01/23 06:21:18;;;;;;;21.05;13.65;;;;;;;;;;5135067;27;20193;-63
2023/01/23 06:23:47;;;;;;;20.60;13.35;;;;;;;;;;5135005;27;20205;-63
2023/01/23 06:26:14;;;;;;;19.35;13.73;;;;;;;;;;5135198;27;20555;-63
2023/01/23 06:28:41;;;;;;;18.85;12.98;;;;;;;;;;5134995;27;20251;-63
2023/01/23 06:31:09;;;;;;;23.13;14.45;;;;;;;;;;5134677;27;20199;-63
2023/01/23 06:33:36;;;;;;;20.85;14.00;;;;;;;;;;5134925;27;20199;-63
2023/01/23 06:36:05;;;;;;;20.13;13.40;;;;;;;;;;5134598;27;20647;-63
2023/01/23 06:38:33;;;;;;;17.20;11.95;;;;;;;;;;5134715;27;20195;-63
2023/01/23 06:41:01;;;;;;;22.70;14.43;;;;;;;;;;5134721;27;20226;-63
2023/01/23 06:43:29;;;;;;;21.15;12.90;;;;;;;;;;5134926;27;20199;-63
2023/01/23 06:45:56;;;;;;;17.30;13.35;;;;;;;;;;5134693;27;20647;-63
2023/01/23 06:48:23;;;;;;;21.60;14.07;;;;;;;;;;5134758;27;20194;-63
2023/01/23 06:50:50;;;;;;;25.25;14.85;;;;;;;;;;5134301;27;20708;-64
2023/01/23 06:53:19;;;;;;;18.90;12.82;;;;;;;;;;5134527;27;20197;-63
2023/01/23 06:55:46;;;;;;;19.63;12.68;;;;;;;;;;5134185;27;20196;-63
2023/01/23 06:58:15;;;;;;;20.80;14.52;;;;;;;;;;5114111;28;20205;-63
2023/01/23 07:00:43;;;;;;;21.08;13.88;;;;;;;;;;5113609;28;20203;-63
2023/01/23 07:03:11;;;;;;;21.58;13.20;;;;;;;;;;5113832;28;20601;-64
2023/01/23 07:05:39;;;;;;;20.88;13.60;;;;;;;;;;5113662;28;20682;-63
2023/01/23 07:08:07;;;;;;;19.45;12.93;;;;;;;;;;5114397;28;20590;-63
2023/01/23 07:10:36;;;;;;;19.02;13.25;;;;;;;;;;5113580;28;20226;-63
2023/01/23 07:13:03;;;;;;;20.65;13.32;;;;;;;;;;5113781;28;20194;-63
2023/01/23 07:15:32;;;;;;;17.73;13.18;;;;;;;;;;5113690;28;20294;-63
2023/01/23 07:17:59;;;;;;;18.77;12.98;;;;;;;;;;5113457;28;20195;-63
2023/01/23 07:20:27;;;;;;;19.58;13.43;;;;;;;;;;5113713;28;20204;-63
2023/01/23 07:22:54;;;;;;;16.30;13.00;;;;;;;;;;5113757;28;20200;-63
2023/01/23 07:25:22;;;;;;;19.77;13.55;;;;;;;;;;5113600;28;20204;-63
2023/01/23 07:27:49;;;;;;;18.95;13.10;;;;;;;;;;5114094;28;20286;-63
2023/01/23 07:30:17;;;;;;;20.05;13.32;;;;;;;;;;5114647;28;20227;-63
2023/01/23 07:32:45;;;;;;;23.02;13.88;;;;;;;;;;5117928;28;20196;-63
2023/01/23 07:35:12;;;;;;;19.70;13.63;;;;;;;;;;5117212;28;20200;-63
2023/01/23 07:37:40;;;;;;;21.25;14.50;;;;;;;;;;5117471;28;20196;-63
2023/01/23 07:40:07;;;;;;;17.50;12.52;;;;;;;;;;5117305;28;20208;-63
2023/01/23 07:42:34;;;;;;;20.92;14.23;;;;;;;;;;5117703;28;20190;-63
2023/01/23 07:45:01;;;;;;;27.70;14.18;;;;;;;;;;5117844;28;20295;-63
2023/01/23 07:47:29;;;;;;;19.98;14.15;;;;;;;;;;5117611;28;20191;-63
2023/01/23 07:49:57;;;;;;;20.98;13.23;;;;;;;;;;5117671;28;20222;-63
2023/01/23 07:52:24;;;;;;;19.13;13.23;;;;;;;;;;5117232;28;20732;-63
2023/01/23 07:54:52;;;;;;;23.45;14.40;;;;;;;;;;5117333;28;20189;-63
2023/01/23 07:57:19;;;;;;;18.15;12.35;;;;;;;;;;5130292;27;20226;-64
2023/01/23 07:59:47;;;;;;;20.15;13.75;;;;;;;;;;5137770;27;20206;-63
2023/01/23 08:02:14;;;;;;;21.30;15.48;;;;;;;;;;5137962;27;20198;-63
2023/01/23 08:04:42;;;;;;;20.33;14.60;;;;;;;;;;5137784;27;20199;-63
2023/01/23 08:07:10;;;;;;;19.65;14.73;;;;;;;;;;5138023;27;20199;-63
2023/01/23 08:09:39;;;;;;;20.80;13.88;;;;;;;;;;5137612;27;20218;-63
2023/01/23 08:12:06;;;;;;;20.30;14.65;;;;;;;;;;5137384;27;20193;-64
2023/01/23 08:14:33;;;;;;;24.05;15.20;;;;;;;;;;5137547;27;20203;-63
2023/01/23 08:17:01;;;;;;;25.83;14.40;;;;;;;;;;5137637;27;20196;-63
2023/01/23 08:19:28;;;;;;;21.88;14.50;;;;;;;;;;5137666;27;20232;-63
2023/01/23 08:21:55;;;;;;;26.20;16.33;;;;;;;;;;5137968;27;20299;-63
2023/01/23 08:24:24;;;;;;;24.95;17.48;;;;;;;;;;5137950;27;20191;-64
2023/01/23 08:26:51;;;;;;;22.73;14.98;;;;;;;;;;5137466;27;20233;-63
2023/01/23 08:29:18;;;;;;;22.08;13.80;;;;;;;;;;5137247;27;20216;-64
2023/01/23 08:31:45;;;;;;;25.27;15.70;;;;;;;;;;5137393;27;20222;-63
2023/01/23 08:34:13;;;;;;;23.90;14.80;;;;;;;;;;5137240;27;20229;-63
2023/01/23 08:36:40;;;;;;;23.52;15.30;;;;;;;;;;5136867;27;20285;-63
2023/01/23 08:39:07;;;;;;;25.63;15.23;;;;;;;;;;5137330;27;20697;-63
2023/01/23 08:41:36;;;;;;;23.50;14.68;;;;;;;;;;5136310;27;20287;-63
2023/01/23 08:44:03;;;;;;;20.80;14.00;;;;;;;;;;5137178;27;20554;-64
2023/01/23 08:46:30;;;;;;;26.73;13.68;;;;;;;;;;5136953;27;20199;-64
2023/01/23 08:48:58;;;;;;;24.10;15.23;;;;;;;;;;5136988;27;20640;-64
2023/01/23 08:51:26;;;;;;;22.85;14.70;;;;;;;;;;5136995;27;20223;-64
2023/01/23 08:53:53;;;;;;;26.25;16.60;;;;;;;;;;5136596;27;20199;-64
2023/01/23 08:56:22;;;;;;;26.92;15.43;;;;;;;;;;5136396;27;20226;-64
2023/01/23 08:58:50;;;;;;;22.02;13.98;;;;;;;;;;5137179;27;20294;-64
2023/01/23 09:01:19;;;;;;;28.88;17.65;;;;;;;;;;5136249;27;20281;-64
2023/01/23 09:03:47;;;;;;;26.83;16.75;;;;;;;;;;5136530;27;20190;-64
2023/01/23 09:06:15;;;;;;;24.70;15.10;;;;;;;;;;5136655;27;20205;-64
2023/01/23 09:08:42;;;;;;;25.00;14.43;;;;;;;;;;5136604;27;20199;-64
2023/01/23 09:11:10;;;;;;;20.65;15.73;;;;;;;;;;5136521;27;20225;-64
2023/01/23 09:13:38;;;;;;;22.73;14.00;;;;;;;;;;5136762;27;20199;-64
2023/01/23 09:16:08;;;;;;;24.25;15.57;;;;;;;;;;5136616;27;20190;-64
2023/01/23 09:18:35;;;;;;;21.35;14.43;;;;;;;;;;5136243;27;20195;-64
2023/01/23 09:21:06;;;;;;;25.52;15.70;;;;;;;;;;5136375;27;20201;-64
2023/01/23 09:23:33;;;;;;;22.15;15.27;;;;;;;;;;5136107;27;20191;-64
2023/01/23 09:26:03;;;;;;;21.88;14.10;;;;;;;;;;5136609;27;20241;-64
2023/01/23 09:28:30;;;;;;;23.73;14.50;;;;;;;;;;5136712;27;20311;-64
2023/01/23 09:30:57;;;;;;;21.73;14.00;;;;;;;;;;5136086;27;20226;-64
2023/01/23 09:33:26;;;;;;;19.50;14.15;;;;;;;;;;5135918;27;20205;-64
2023/01/23 09:35:53;;;;;;;19.05;14.30;;;;;;;;;;5136206;27;20546;-64
2023/01/23 09:38:20;;;;;;;19.83;14.25;;;;;;;;;;5136104;27;20600;-64
2023/01/23 09:40:49;;;;;;;25.98;15.18;;;;;;;;;;5135934;27;20228;-64
2023/01/23 09:43:19;;;;;;;25.55;13.93;;;;;;;;;;5136222;27;20195;-64
2023/01/23 09:45:50;;;;;;;25.63;15.88;;;;;;;;;;5136324;27;20195;-64
2023/01/23 09:48:21;;;;;;;23.23;15.55;;;;;;;;;;5135975;27;20219;-64
2023/01/23 09:50:55;;;;;;;26.15;15.50;;;;;;;;;;5135718;27;20214;-64
2023/01/23 09:53:23;;;;;;;19.98;13.73;;;;;;;;;;5136073;27;20188;-64
2023/01/23 09:55:54;;;;;;;22.85;15.00;;;;;;;;;;5135195;27;20206;-64
2023/01/23 09:58:25;;;;;;;21.80;14.63;;;;;;;;;;5135334;27;20179;-65
2023/01/23 10:00:53;;;;;;;20.77;14.23;;;;;;;;;;5135898;27;20198;-64
2023/01/23 10:03:20;;;;;;;22.00;15.95;;;;;;;;;;5135280;27;20212;-64
2023/01/23 10:05:56;;;;;;;22.65;14.98;;;;;;;;;;5135544;27;20194;-64
2023/01/23 10:08:29;;;;;;;18.92;13.95;;;;;;;;;;5135956;27;20190;-65
2023/01/23 10:10:59;;;;;;;20.50;13.10;;;;;;;;;;5135898;27;20217;-64
2023/01/23 10:13:36;;;;;;;18.65;13.73;;;;;;;;;;5135953;27;20198;-64
2023/01/23 10:16:15;;;;;;;21.20;13.25;;;;;;;;;;5135342;27;20193;-64
2023/01/23 10:18:45;;;;;;;20.20;13.07;;;;;;;;;;5135064;27;20183;-64
2023/01/23 10:21:18;;;;;;;24.02;15.40;;;;;;;;;;5135166;27;20199;-65
2023/01/23 10:23:56;;;;;;;18.52;12.57;;;;;;;;;;5135408;27;20226;-64
2023/01/23 10:26:24;;;;;;;17.70;13.13;;;;;;;;;;5135414;27;20195;-65
2023/01/23 10:28:54;;;;;;;18.15;13.02;;;;;;;;;;5135165;27;20199;-64
2023/01/23 10:31:25;;;;;;;24.25;13.90;;;;;;;;;;5135107;27;20206;-65
2023/01/23 10:33:56;;;;;;;18.73;13.57;;;;;;;;;;5135374;27;20540;-64
2023/01/23 10:36:26;;;;;;;23.30;14.93;;;;;;;;;;5135037;27;20204;-65
2023/01/23 10:38:58;;;;;;;19.15;13.35;;;;;;;;;;5134943;27;20734;-64
2023/01/23 10:41:25;;;;;;;22.15;14.45;;;;;;;;;;5134547;27;20189;-65
2023/01/23 10:43:53;;;;;;;22.17;13.88;;;;;;;;;;5135006;27;20194;-64
2023/01/23 10:46:22;;;;;;;18.45;12.48;;;;;;;;;;5134747;27;20195;-65
2023/01/23 10:48:50;;;;;;;28.27;13.20;;;;;;;;;;5134503;27;20654;-65
2023/01/23 10:51:45;;;;;;;18.65;13.10;;;;;;;;;;5134156;27;20225;-65
2023/01/23 10:54:17;;;;;;;22.48;14.77;;;;;;;;;;5135012;27;20183;-64
2023/01/23 10:56:53;;;;;;;23.85;13.32;;;;;;;;;;5134680;27;20264;-65
2023/01/23 10:59:26;;;;;;;22.23;14.73;;;;;;;;;;5134778;27;20197;-64
2023/01/23 11:02:01;;;;;;;21.75;14.18;;;;;;;;;;5134525;27;20200;-65
2023/01/23 11:04:29;;;;;;;20.85;13.55;;;;;;;;;;5134184;27;20202;-64
2023/01/23 11:07:04;;;;;;;26.10;16.42;;;;;;;;;;5134465;27;20553;-65
2023/01/23 11:09:33;;;;;;;21.75;15.05;;;;;;;;;;5134207;27;20623;-64
2023/01/23 11:12:00;;;;;;;24.90;16.98;;;;;;;;;;5133458;27;20269;-65
2023/01/23 11:14:28;;;;;;;23.92;14.55;;;;;;;;;;5133500;28;20720;-65
2023/01/23 11:17:02;;;;;;;21.58;14.15;;;;;;;;;;5134261;28;20197;-65
2023/01/23 11:19:31;;;;;;;22.25;14.10;;;;;;;;;;5133906;28;20615;-65
2023/01/23 11:22:00;;;;;;;22.58;13.40;;;;;;;;;;5133769;28;20282;-64
2023/01/23 11:24:32;;;;;;;23.13;15.63;;;;;;;;;;5134339;28;20190;-64
2023/01/23 11:27:02;;;;;;;18.42;13.27;;;;;;;;;;5134360;28;20249;-64
2023/01/23 11:29:30;;;;;;;31.23;16.83;;;;;;;;;;5133284;28;20191;-64
2023/01/23 11:31:59;;;;;;;21.13;15.35;;;;;;;;;;5133833;28;20229;-64
2023/01/23 11:34:28;;;;;;;23.02;14.30;;;;;;;;;;5133806;28;20197;-65
2023/01/23 11:37:00;;;;;;;18.92;13.02;;;;;;;;;;5134033;28;20280;-65
2023/01/23 11:39:35;;;;;;;22.08;14.20;;;;;;;;;;5133886;28;20644;-64
2023/01/23 11:42:03;;;;;;;29.95;15.70;;;;;;;;;;5134474;28;20224;-67
2023/01/23 11:44:32;;;;;;;17.63;12.95;;;;;;;;;;5133880;28;20205;-65
2023/01/23 11:47:12;;;;;;;20.33;13.25;;;;;;;;;;5133819;28;20200;-65
2023/01/23 11:49:50;;;;;;;19.98;13.95;;;;;;;;;;5134763;28;20217;-63
2023/01/23 11:52:26;;;;;;;20.98;13.90;;;;;;;;;;5133992;28;20215;-63
2023/01/23 11:55:01;;;;;;;21.17;13.40;;;;;;;;;;5133333;28;20177;-65
2023/01/23 11:57:35;;;;;;;21.33;13.02;;;;;;;;;;5134123;28;20602;-65
2023/01/23 12:00:06;;;;;;;17.67;13.23;;;;;;;;;;5133705;28;20189;-64
2023/01/23 12:02:47;;;;;;;21.55;14.70;;;;;;;;;;5133904;28;20192;-64
2023/01/23 12:05:34;;;;;;;22.52;13.70;;;;;;;;;;5133595;28;20188;-63
2023/01/23 12:08:08;;;;;;;25.00;14.30;;;;;;;;;;5134307;28;20208;-64
2023/01/23 12:10:43;;;;;;;25.08;14.48;;;;;;;;;;5133585;28;20202;-64
2023/01/23 12:13:20;;;;;;;24.73;15.20;;;;;;;;;;5134037;28;20187;-66
2023/01/23 12:15:56;;;;;;;26.60;15.02;;;;;;;;;;5134782;27;20187;-64
2023/01/23 12:18:29;;;;;;;26.75;17.35;;;;;;;;;;5137025;27;20197;-64
2023/01/23 12:21:01;;;;;;;26.17;17.02;;;;;;;;;;5137869;27;20191;-65
2023/01/23 12:23:38;;;;;;;32.33;17.77;;;;;;;;;;5137454;27;20660;-65
2023/01/23 12:26:12;;;;;;;30.48;18.50;;;;;;;;;;5137600;27;20199;-64
2023/01/23 12:28:58;;;;;;;30.83;18.17;;;;;;;;;;5137809;27;20191;-64
2023/01/23 12:31:31;;;;;;;28.30;18.50;;;;;;;;;;5138204;27;20301;-64
2023/01/23 12:34:09;;;;;;;28.40;18.38;;;;;;;;;;5137001;27;20188;-65
2023/01/23 12:36:46;;;;;;;24.08;16.52;;;;;;;;;;5137479;27;20284;-64
2023/01/23 12:39:22;;;;;;;34.80;17.27;;;;;;;;;;5137358;27;20273;-65
2023/01/23 12:41:51;;;;;;;27.17;16.10;;;;;;;;;;5137562;27;20312;-64
2023/01/23 12:44:23;;;;;;;27.67;17.83;;;;;;;;;;5137149;27;20204;-64
2023/01/23 12:46:55;;;;;;;25.13;16.08;;;;;;;;;;5137651;27;20184;-64
2023/01/23 12:49:26;;;;;;;30.77;18.45;;;;;;;;;;5137103;27;20631;-65
2023/01/23 12:51:56;;;;;;;30.50;17.83;;;;;;;;;;5137129;27;20682;-65
2023/01/23 12:54:27;;;;;;;25.92;16.85;;;;;;;;;;5136509;27;20190;-65
2023/01/23 12:56:55;;;;;;;26.17;17.08;;;;;;;;;;5137157;27;20236;-65
2023/01/23 12:59:28;;;;;;;32.80;18.25;;;;;;;;;;5136383;27;20673;-64
2023/01/23 13:01:58;;;;;;;23.67;15.35;;;;;;;;;;5136896;27;20198;-64
2023/01/23 13:04:33;;;;;;;29.42;16.85;;;;;;;;;;5136319;27;20715;-64
2023/01/23 13:07:08;;;;;;;108.60;43.92;;;;;;;;;;5137296;27;20197;-64
2023/01/23 13:09:40;;;;;;;36.38;19.23;;;;;;;;;;5136332;27;20182;-64
2023/01/23 13:12:17;;;;;;;24.55;15.98;;;;;;;;;;5136708;27;20299;-64
2023/01/23 13:14:46;;;;;;;25.98;17.02;;;;;;;;;;5136267;27;20235;-64
2023/01/23 13:17:30;;;;;;;34.28;18.25;;;;;;;;;;5136195;27;20194;-64
2023/01/23 13:23:18;;;;;;;25.85;16.67;;;;;;;;;;5136290;27;20185;-65
2023/01/23 13:25:45;;;;;;;23.42;15.85;;;;;;;;;;5132624;27;20195;-64
2023/01/23 13:28:33;;;;;;;25.60;17.42;;;;;;;;;;5135537;27;20668;-64
2023/01/23 13:31:02;;;;;;;31.02;17.50;;;;;;;;;;5136244;27;20218;-64
2023/01/23 13:33:53;;;;;;;29.95;17.10;;;;;;;;;;5136254;27;20578;-64
2023/01/23 13:36:41;;;;;;;29.63;18.95;;;;;;;;;;5136123;27;20186;-64
2023/01/23 13:39:23;;;;;;;34.00;19.33;;;;;;;;;;5136227;27;20183;-64
2023/01/23 13:41:51;;;;;;;26.38;16.98;;;;;;;;;;5135765;27;20196;-64
2023/01/23 13:44:20;;;;;;;27.48;18.48;;;;;;;;;;5135997;27;20285;-64
2023/01/23 13:47:05;;;;;;;26.92;17.60;;;;;;;;;;5136531;27;20194;-64
2023/01/23 13:49:50;;;;;;;26.67;17.75;;;;;;;;;;5119243;27;20197;-64
2023/01/23 13:57:43;;;;;;;31.38;16.80;;;;;;;;;;5100838;27;20275;-64
2023/01/23 14:00:18;;;;;;;20.13;15.45;;;;;;;;;;5135448;27;20200;-65
2023/01/23 14:06:02;;;;;;;30.60;17.80;;;;;;;;;;5071927;28;20672;-65
2023/01/23 14:08:30;;;;;;;30.90;18.50;;;;;;;;;;5072273;28;20213;-64
2023/01/23 14:10:57;;;;;;;24.55;17.23;;;;;;;;;;5104187;27;20195;-65
2023/01/23 14:13:24;;;;;;;26.55;17.20;;;;;;;;;;5134591;27;20188;-65
2023/01/23 14:16:09;;;;;;;26.05;16.70;;;;;;;;;;5135186;27;20229;-64
2023/01/23 14:18:38;;;;;;;27.98;16.70;;;;;;;;;;5133740;27;20197;-65
2023/01/23 14:21:14;;;;;;;27.80;16.25;;;;;;;;;;5133771;27;20650;-65
2023/01/23 14:23:42;;;;;;;26.63;18.30;;;;;;;;;;5134160;27;20639;-65
2023/01/23 14:26:10;;;;;;;26.20;16.75;;;;;;;;;;5134166;27;20250;-65
2023/01/23 14:28:38;;;;;;;38.55;19.70;;;;;;;;;;5134595;27;20209;-66
2023/01/23 14:31:06;;;;;;;26.83;16.92;;;;;;;;;;5134028;27;20191;-65
2023/01/23 14:33:44;;;;;;;25.33;17.67;;;;;;;;;;5134299;27;20195;-65
2023/01/23 14:36:20;;;;;;;31.00;19.75;;;;;;;;;;5134001;27;20202;-65
2023/01/23 14:38:48;;;;;;;33.05;18.02;;;;;;;;;;5134785;27;20542;-64
2023/01/23 14:41:16;;;;;;;30.88;17.92;;;;;;;;;;5133427;27;20735;-65
2023/01/23 14:43:44;;;;;;;28.60;17.73;;;;;;;;;;5134220;27;20202;-65
2023/01/23 14:46:15;;;;;;;29.67;19.13;;;;;;;;;;5134646;27;20195;-64
2023/01/23 14:48:44;;;;;;;34.45;20.17;;;;;;;;;;5134352;27;20695;-65